createdAt,value
2018-07-15T21:53:52.357Z,45.20
2018-07-15T21:56:20.609Z,45.10
2018-07-15T21:58:51.831Z,44.30
2018-07-15T22:01:21.088Z,45.20
2018-07-15T22:03:48.795Z,45.10
2018-07-15T22:09:01.937Z,45.60
2018-07-15T22:11:29.710Z,45.60
2018-07-15T22:13:57.423Z,45.60
2018-07-15T22:16:25.134Z,45.60
2018-07-15T22:18:52.840Z,46.20
2018-07-15T22:21:20.629Z,45.70
2018-07-15T22:23:48.323Z,45.70
2018-07-15T22:26:15.817Z,45.80
2018-07-15T22:28:43.359Z,45.80
2018-07-15T22:31:10.894Z,45.90
2018-07-15T22:33:38.378Z,46.10
2018-07-15T22:36:06.032Z,46.00
2018-07-15T22:38:33.492Z,46.00
2018-07-15T22:41:01.160Z,46.10
2018-07-15T22:43:28.601Z,46.10
2018-07-15T22:45:56.152Z,46.30
2018-07-15T22:48:23.612Z,46.20
2018-07-15T22:50:51.085Z,46.30
2018-07-15T22:53:18.672Z,46.40
2018-07-15T22:55:46.108Z,46.40
2018-07-15T22:58:13.621Z,46.50
2018-07-15T23:00:41.068Z,46.60
2018-07-15T23:05:48.632Z,46.70
2018-07-15T23:08:16.157Z,46.80
2018-07-15T23:10:43.651Z,46.40
2018-07-15T23:13:11.691Z,46.90
2018-07-15T23:15:39.682Z,47.00
2018-07-15T23:18:07.241Z,47.10
2018-07-15T23:20:35.527Z,47.20
2018-07-15T23:23:03.989Z,47.30
2018-07-15T23:25:31.941Z,47.30
2018-07-15T23:28:00.245Z,47.40
2018-07-15T23:30:28.535Z,47.50
2018-07-15T23:32:56.081Z,47.50
2018-07-15T23:35:23.760Z,47.50
2018-07-15T23:37:51.208Z,47.60
2018-07-15T23:40:18.792Z,47.70
2018-07-15T23:42:46.301Z,47.80
2018-07-15T23:45:13.799Z,47.80
2018-07-15T23:47:41.188Z,47.30
2018-07-15T23:50:08.740Z,48.10
2018-07-15T23:55:03.677Z,48.20
2018-07-15T23:57:31.475Z,48.30
2018-07-15T23:59:59.392Z,48.40
